createdAt,value
2022-10-30T00:01:03.765Z,99601.72
2022-10-30T00:03:30.357Z,99601.91
2022-10-30T00:05:56.668Z,99597.75
2022-10-30T00:08:23.977Z,99601.59
2022-10-30T00:10:50.368Z,99600.78
2022-10-30T00:13:17.837Z,99605.31
2022-10-30T00:15:52.121Z,99592.09
2022-10-30T00:18:19.313Z,99594.97
2022-10-30T00:20:46.314Z,99596.47
2022-10-30T00:23:12.764Z,99591.09
2022-10-30T00:25:39.424Z,99547.50
2022-10-30T00:28:06.675Z,99554.03
2022-10-30T00:30:35.043Z,99547.22
2022-10-30T00:33:01.742Z,99546.19
2022-10-30T00:35:28.327Z,99542.69
2022-10-30T00:37:55.095Z,99542.88
2022-10-30T00:40:22.613Z,99540.22
2022-10-30T00:42:49.099Z,99543.25
2022-10-30T00:45:17.293Z,99538.06
2022-10-30T00:47:51.626Z,99528.75
2022-10-30T00:50:29.173Z,99528.09
2022-10-30T00:53:03.893Z,99524.75
2022-10-30T00:55:39.198Z,99522.09
2022-10-30T00:58:10.843Z,99524.97
2022-10-30T01:00:40.354Z,99532.16
2022-10-30T01:03:06.928Z,99529.28
2022-10-30T01:05:33.978Z,99529.66
2022-10-30T01:08:00.767Z,99521.00
2022-10-30T01:10:27.811Z,99516.84
2022-10-30T01:12:55.897Z,99511.03
2022-10-30T01:15:33.454Z,99510.84
2022-10-30T01:18:18.174Z,99515.06
2022-10-30T01:21:10.386Z,99501.91
2022-10-30T01:23:56.172Z,99508.72
2022-10-30T01:26:37.012Z,99498.41
2022-10-30T01:29:03.309Z,99503.28
2022-10-30T01:31:51.768Z,99501.78
2022-10-30T01:34:19.919Z,99506.31
2022-10-30T01:36:57.086Z,99495.63
2022-10-30T01:39:27.029Z,99493.78
2022-10-30T01:41:53.885Z,99494.13
2022-10-30T01:44:31.438Z,99493.78
2022-10-30T01:47:34.634Z,99488.78
2022-10-30T01:50:25.994Z,99493.47
2022-10-30T01:53:05.025Z,99486.28
2022-10-30T01:55:41.434Z,99494.50
2022-10-30T01:58:27.124Z,99494.66
2022-10-30T02:00:59.054Z,99489.66
2022-10-30T02:03:27.205Z,99492.31
2022-10-30T02:05:54.302Z,99487.16
2022-10-30T02:08:22.184Z,99498.84
2022-10-30T02:10:51.272Z,99489.53
2022-10-30T02:13:18.477Z,99495.06
2022-10-30T02:15:47.081Z,99491.19
2022-10-30T02:18:13.613Z,99502.72
2022-10-30T02:20:40.399Z,99493.16
2022-10-30T02:23:07.366Z,99490.38
2022-10-30T02:25:35.051Z,99483.53
2022-10-30T02:28:01.581Z,99490.25
2022-10-30T02:30:28.033Z,99490.09
2022-10-30T02:32:54.625Z,99488.25
2022-10-30T02:35:21.150Z,99483.72
2022-10-30T02:37:49.102Z,99482.25
2022-10-30T02:40:15.610Z,99477.94
2022-10-30T02:42:42.034Z,99472.94
2022-10-30T02:45:09.155Z,99481.97
2022-10-30T02:47:35.586Z,99476.50
2022-10-30T02:50:01.906Z,99467.66
2022-10-30T02:52:28.472Z,99468.00
2022-10-30T02:54:54.915Z,99466.16
2022-10-30T02:57:21.369Z,99469.69
2022-10-30T02:59:47.878Z,99461.69
2022-10-30T03:02:14.573Z,99465.81
2022-10-30T03:04:41.174Z,99467.50
2022-10-30T03:07:07.609Z,99468.47
2022-10-30T03:09:33.942Z,99461.31
2022-10-30T03:12:00.363Z,99465.81
2022-10-30T03:14:26.809Z,99466.31
2022-10-30T03:16:53.145Z,99466.13
2022-10-30T03:19:19.690Z,99474.94
2022-10-30T03:21:46.519Z,99473.78
2022-10-30T03:24:13.220Z,99475.63
2022-10-30T03:26:39.709Z,99474.47
2022-10-30T03:29:06.127Z,99474.47
2022-10-30T03:31:32.982Z,99472.00
2022-10-30T03:33:59.442Z,99478.34
2022-10-30T03:36:26.509Z,99479.34
2022-10-30T03:38:52.846Z,99484.03
2022-10-30T03:41:19.295Z,99485.72
2022-10-30T03:43:45.661Z,99489.38
2022-10-30T03:46:12.111Z,99484.69
2022-10-30T03:48:38.584Z,99478.88
2022-10-30T03:51:05.401Z,99489.09
2022-10-30T03:53:31.817Z,99484.94
2022-10-30T03:56:00.743Z,99495.78
2022-10-30T03:58:28.370Z,99491.63
2022-10-30T04:00:55.509Z,99493.47
2022-10-30T04:03:22.203Z,99500.84
2022-10-30T04:05:48.573Z,99501.19
2022-10-30T04:08:15.098Z,99499.72
2022-10-30T04:10:46.836Z,99498.06
2022-10-30T04:13:16.297Z,99498.22
2022-10-30T04:15:43.541Z,99497.75
2022-10-30T04:18:11.927Z,99504.09
2022-10-30T04:20:38.395Z,99505.91
2022-10-30T04:23:07.103Z,99507.13
2022-10-30T04:25:35.022Z,99513.63
2022-10-30T04:28:02.057Z,99507.47
2022-10-30T04:30:29.237Z,99514.81
2022-10-30T04:32:57.301Z,99509.81
2022-10-30T04:35:26.253Z,99505.00
2022-10-30T04:37:57.855Z,99508.00
2022-10-30T04:40:26.337Z,99502.19
2022-10-30T04:42:52.743Z,99502.56
2022-10-30T04:45:19.659Z,99501.25
2022-10-30T04:47:46.429Z,99503.25
2022-10-30T04:50:13.902Z,99501.94
2022-10-30T04:52:40.917Z,99502.13
2022-10-30T04:55:08.696Z,99495.31
2022-10-30T04:57:35.093Z,99496.47
2022-10-30T05:00:01.713Z,99485.81
2022-10-30T05:02:28.287Z,99494.81
2022-10-30T05:04:55.005Z,99491.50
2022-10-30T05:07:21.343Z,99496.16
2022-10-30T05:09:47.745Z,99484.16
2022-10-30T05:12:14.281Z,99489.66
2022-10-30T05:14:40.756Z,99484.50
2022-10-30T05:17:07.249Z,99485.84
2022-10-30T05:19:33.783Z,99483.34
2022-10-30T05:22:00.204Z,99479.88
2022-10-30T05:24:26.611Z,99470.53
2022-10-30T05:26:53.043Z,99471.53
2022-10-30T05:29:19.403Z,99459.56
2022-10-30T05:31:45.894Z,99459.09
2022-10-30T05:34:12.280Z,99466.56
2022-10-30T05:36:38.644Z,99452.94
2022-10-30T05:39:04.980Z,99456.94
2022-10-30T05:41:31.408Z,99461.63
2022-10-30T05:43:57.928Z,99466.31
2022-10-30T05:46:24.315Z,99464.81
2022-10-30T05:48:50.684Z,99449.34
2022-10-30T05:51:17.204Z,99465.16
2022-10-30T05:53:43.779Z,99457.34
2022-10-30T05:56:10.209Z,99458.16
2022-10-30T05:58:37.937Z,99446.34
2022-10-30T06:01:08.386Z,99451.03
2022-10-30T06:03:34.726Z,99446.06
2022-10-30T06:06:01.276Z,99446.88
2022-10-30T06:08:27.912Z,99451.19
2022-10-30T06:10:54.753Z,99450.53
2022-10-30T06:13:21.517Z,99459.53
2022-10-30T06:15:48.098Z,99462.69
2022-10-30T06:18:15.105Z,99461.69
2022-10-30T06:20:41.466Z,99459.88
2022-10-30T06:23:28.423Z,99463.34
2022-10-30T06:25:55.103Z,99466.16
2022-10-30T06:28:21.460Z,99464.53
2022-10-30T06:30:48.047Z,99464.38
2022-10-30T06:33:14.426Z,99470.34
2022-10-30T06:35:40.782Z,99473.47
2022-10-30T06:38:07.365Z,99475.81
2022-10-30T06:40:33.750Z,99478.47
2022-10-30T06:43:00.584Z,99484.63
2022-10-30T06:45:27.498Z,99494.94
2022-10-30T06:47:54.510Z,99485.09
2022-10-30T06:50:22.182Z,99495.72
2022-10-30T06:52:48.687Z,99496.84
2022-10-30T06:55:15.282Z,99505.16
2022-10-30T06:57:41.724Z,99514.25
2022-10-30T07:00:08.957Z,99517.50
2022-10-30T07:02:35.529Z,99525.97
2022-10-30T07:05:01.861Z,99553.69
2022-10-30T07:07:29.477Z,99571.56
2022-10-30T07:09:55.812Z,99597.97
2022-10-30T07:12:22.147Z,99602.84
2022-10-30T07:14:48.774Z,99625.75
2022-10-30T07:17:15.382Z,99633.97
2022-10-30T07:19:41.925Z,99581.97
2022-10-30T07:22:08.596Z,99563.69
2022-10-30T07:24:35.043Z,99257.50
2022-10-30T07:27:01.441Z,99188.53
2022-10-30T07:29:27.843Z,99188.81
2022-10-30T07:32:02.232Z,99193.56
2022-10-30T07:34:29.409Z,99188.22
2022-10-30T07:36:55.778Z,99188.13
2022-10-30T07:39:22.680Z,99187.66
2022-10-30T07:41:50.333Z,99198.31
2022-10-30T07:44:17.060Z,99193.63
2022-10-30T07:46:44.831Z,99197.63
2022-10-30T07:49:11.354Z,99197.88
2022-10-30T07:51:37.875Z,99202.91
2022-10-30T07:54:04.460Z,99187.00
2022-10-30T07:56:30.846Z,99200.47
2022-10-30T07:58:57.254Z,99192.69
2022-10-30T08:01:24.012Z,99190.75
2022-10-30T08:03:50.520Z,99185.03
2022-10-30T08:06:20.001Z,99183.50
2022-10-30T08:08:49.353Z,99184.50
2022-10-30T08:11:15.791Z,99175.25
2022-10-30T08:13:42.135Z,99191.38
2022-10-30T08:16:08.545Z,99183.75
2022-10-30T08:18:34.996Z,99178.38
2022-10-30T08:21:01.294Z,99183.56
2022-10-30T08:23:27.933Z,99177.00
2022-10-30T08:25:57.406Z,99164.97
2022-10-30T08:28:28.278Z,99177.59
2022-10-30T08:30:59.028Z,99167.03
2022-10-30T08:33:25.495Z,99166.63
2022-10-30T08:35:54.139Z,99167.22
2022-10-30T08:38:20.573Z,99160.94
2022-10-30T08:40:47.235Z,99155.34
2022-10-30T08:43:13.864Z,99154.88
2022-10-30T08:45:40.959Z,99158.19
2022-10-30T08:48:11.178Z,99155.50
2022-10-30T08:50:37.536Z,99149.66
2022-10-30T08:53:07.515Z,99151.00
2022-10-30T08:55:35.421Z,99150.09
2022-10-30T08:58:01.887Z,99150.69
2022-10-30T09:00:28.656Z,99144.53
2022-10-30T09:02:56.106Z,99144.25
2022-10-30T09:05:22.804Z,99137.09
2022-10-30T09:07:49.173Z,99135.75
2022-10-30T09:10:15.983Z,99137.53
2022-10-30T09:12:42.523Z,99124.63
2022-10-30T09:15:09.196Z,99131.25
2022-10-30T09:17:35.612Z,99127.50
2022-10-30T09:20:02.260Z,99130.56
2022-10-30T09:22:28.710Z,99127.31
2022-10-30T09:24:55.052Z,99130.00
2022-10-30T09:27:21.417Z,99122.97
2022-10-30T09:29:47.720Z,99124.56
2022-10-30T09:32:14.035Z,99125.84
2022-10-30T09:34:40.366Z,99113.19
2022-10-30T09:37:06.773Z,99124.13
2022-10-30T09:39:33.450Z,99123.44
2022-10-30T09:42:22.212Z,99131.31
2022-10-30T09:45:41.901Z,99127.31
2022-10-30T09:48:17.403Z,99126.53
2022-10-30T09:51:11.204Z,99133.41
2022-10-30T09:54:03.480Z,99116.31
2022-10-30T09:56:32.551Z,99125.88
2022-10-30T09:59:31.223Z,99120.84
2022-10-30T10:02:28.240Z,99125.00
2022-10-30T10:05:00.739Z,99121.59
2022-10-30T10:07:31.109Z,99121.38
2022-10-30T10:10:05.675Z,99122.38
2022-10-30T10:12:43.129Z,99113.38
2022-10-30T10:15:47.672Z,99122.50
2022-10-30T10:18:22.974Z,99115.91
2022-10-30T10:20:53.617Z,99121.72
2022-10-30T10:23:28.921Z,99120.47
2022-10-30T10:26:00.594Z,99127.91
2022-10-30T10:28:45.501Z,99127.03
2022-10-30T10:31:41.437Z,99125.44
2022-10-30T10:34:35.674Z,99122.84
2022-10-30T10:37:26.852Z,99122.16
2022-10-30T10:40:24.161Z,99112.84
2022-10-30T10:43:02.599Z,99113.38
2022-10-30T10:45:55.708Z,99113.31
2022-10-30T10:48:45.372Z,99112.75
2022-10-30T10:51:22.685Z,99106.28
2022-10-30T10:53:59.526Z,99101.09
2022-10-30T10:56:31.975Z,99099.78
2022-10-30T10:59:03.485Z,99098.03
2022-10-30T11:01:38.217Z,99094.59
2022-10-30T11:04:27.986Z,99084.22
2022-10-30T11:06:56.338Z,99091.50
2022-10-30T11:09:26.255Z,99089.16
2022-10-30T11:11:55.026Z,99091.78
2022-10-30T11:14:28.888Z,99083.84
2022-10-30T11:17:13.575Z,99086.31
2022-10-30T11:19:39.952Z,99099.06
2022-10-30T11:22:21.811Z,99083.34
2022-10-30T11:24:48.445Z,99087.19
2022-10-30T11:27:23.704Z,99077.50
2022-10-30T11:29:57.075Z,99079.72
2022-10-30T11:32:31.234Z,99072.25
2022-10-30T11:35:00.748Z,99074.75
2022-10-30T11:37:32.558Z,99071.16
2022-10-30T11:40:20.587Z,99068.34
2022-10-30T11:43:05.120Z,99069.94
2022-10-30T11:45:37.712Z,99062.63
2022-10-30T11:48:13.716Z,99060.06
2022-10-30T11:50:47.537Z,99062.75
2022-10-30T11:53:22.520Z,99066.84
2022-10-30T11:55:50.130Z,99054.09
2022-10-30T11:58:25.616Z,99055.78
2022-10-30T12:01:02.828Z,99049.28
2022-10-30T12:03:36.958Z,99043.22
2022-10-30T12:06:20.811Z,99052.25
2022-10-30T12:09:04.268Z,99044.91
2022-10-30T12:11:35.195Z,99053.97
2022-10-30T12:14:02.296Z,99047.69
2022-10-30T12:16:29.943Z,99048.28
2022-10-30T12:19:08.215Z,99044.09
2022-10-30T12:21:43.418Z,99038.28
2022-10-30T12:24:21.091Z,99036.66
2022-10-30T12:26:50.898Z,99035.38
2022-10-30T12:29:19.713Z,99037.84
2022-10-30T12:32:07.454Z,99025.34
2022-10-30T12:35:03.005Z,99031.06
2022-10-30T12:37:41.718Z,99027.88
2022-10-30T12:40:18.824Z,99029.25
2022-10-30T12:42:53.231Z,99031.16
2022-10-30T12:45:39.135Z,99024.09
2022-10-30T12:48:18.174Z,99027.88
2022-10-30T12:51:15.967Z,99030.88
2022-10-30T12:53:54.452Z,99032.78
2022-10-30T12:56:30.131Z,99023.25
2022-10-30T12:59:16.546Z,99018.88
2022-10-30T13:01:54.153Z,99011.53
2022-10-30T13:04:29.133Z,99008.56
2022-10-30T13:07:24.981Z,99005.00
2022-10-30T13:10:03.589Z,99005.00
2022-10-30T13:12:36.339Z,99005.28
2022-10-30T13:15:17.746Z,99009.38
2022-10-30T13:17:44.236Z,99008.53
2022-10-30T13:20:15.517Z,99004.47
2022-10-30T13:22:57.816Z,99007.72
2022-10-30T13:25:33.974Z,99002.81
2022-10-30T13:28:21.563Z,99003.09
2022-10-30T13:31:18.902Z,99000.31
2022-10-30T13:34:05.926Z,98991.59
2022-10-30T13:36:35.508Z,98986.91
2022-10-30T13:39:29.883Z,98992.63
2022-10-30T13:42:20.995Z,98987.19
2022-10-30T13:45:25.909Z,98994.03
2022-10-30T13:48:16.002Z,98993.78
2022-10-30T13:51:03.687Z,98997.63
2022-10-30T13:53:33.862Z,98986.75
2022-10-30T13:56:00.283Z,98996.47
2022-10-30T13:58:37.134Z,98994.00
2022-10-30T14:01:20.769Z,98994.84
2022-10-30T14:04:05.889Z,98994.34
2022-10-30T14:07:01.912Z,98988.31
2022-10-30T14:09:39.410Z,98987.75
2022-10-30T14:12:43.450Z,98984.47
2022-10-30T14:15:25.255Z,98982.88
2022-10-30T14:18:10.166Z,98981.53
2022-10-30T14:20:36.562Z,98988.31
2022-10-30T14:23:08.996Z,98992.84
2022-10-30T14:25:35.637Z,98984.41
2022-10-30T14:28:02.401Z,98986.31
2022-10-30T14:30:29.090Z,98976.50
2022-10-30T14:32:55.696Z,98973.94
2022-10-30T14:35:39.057Z,98981.50
2022-10-30T14:38:08.412Z,98986.06
2022-10-30T14:40:46.244Z,98979.72
2022-10-30T14:43:17.234Z,98987.16
2022-10-30T14:45:56.191Z,98986.69
2022-10-30T14:48:37.379Z,98983.84
2022-10-30T14:51:16.533Z,98986.44
2022-10-30T14:54:06.456Z,98986.56
2022-10-30T14:56:45.210Z,98995.13
2022-10-30T14:59:14.300Z,98993.94
2022-10-30T15:01:52.937Z,98996.50
2022-10-30T15:04:25.901Z,98995.84
2022-10-30T15:07:22.431Z,99003.81
2022-10-30T15:09:54.802Z,98995.34
2022-10-30T15:12:39.799Z,98997.09
2022-10-30T15:15:13.988Z,99003.50
2022-10-30T15:17:43.702Z,99000.66
2022-10-30T15:20:21.170Z,99001.28
2022-10-30T15:22:52.865Z,99005.66
2022-10-30T15:25:21.807Z,99004.28
2022-10-30T15:27:52.225Z,99010.72
2022-10-30T15:30:22.229Z,99010.81
2022-10-30T15:32:48.931Z,99015.78
2022-10-30T15:35:20.390Z,99018.88
2022-10-30T15:38:01.464Z,99011.41
2022-10-30T15:40:29.341Z,99007.13
2022-10-30T15:42:58.103Z,99019.91
2022-10-30T15:45:33.607Z,99024.88
2022-10-30T15:48:24.654Z,99031.34
2022-10-30T15:51:06.818Z,99030.34
2022-10-30T15:53:43.454Z,99029.28
2022-10-30T15:56:33.481Z,99032.28
2022-10-30T15:59:02.950Z,99037.47
2022-10-30T16:01:37.064Z,99030.19
2022-10-30T16:04:03.743Z,99036.91
2022-10-30T16:06:31.912Z,99032.09
2022-10-30T16:08:58.583Z,99036.78
2022-10-30T16:11:26.692Z,99038.25
2022-10-30T16:13:53.356Z,99038.25
2022-10-30T16:16:27.784Z,99034.84
2022-10-30T16:19:00.147Z,99033.78
2022-10-30T16:21:27.940Z,99034.09
2022-10-30T16:23:57.371Z,99033.38
2022-10-30T16:26:30.961Z,99042.59
2022-10-30T16:28:59.221Z,99040.00
2022-10-30T16:31:32.948Z,99038.13
2022-10-30T16:33:59.947Z,99046.06
2022-10-30T16:36:26.487Z,99059.38
2022-10-30T16:38:54.355Z,99059.09
2022-10-30T16:41:26.892Z,99059.19
2022-10-30T16:44:29.782Z,99057.81
2022-10-30T16:47:02.601Z,99062.69
2022-10-30T16:49:32.189Z,99061.94
2022-10-30T16:52:02.278Z,99065.38
2022-10-30T16:54:32.407Z,99068.97
2022-10-30T16:57:02.564Z,99074.06
2022-10-30T16:59:37.167Z,99076.81
2022-10-30T17:02:13.537Z,99080.59
2022-10-30T17:04:44.043Z,99082.09
2022-10-30T17:07:19.700Z,99088.59
2022-10-30T17:09:48.530Z,99081.16
2022-10-30T17:12:17.831Z,99089.06
2022-10-30T17:14:50.683Z,99094.31
2022-10-30T17:17:25.069Z,99100.75
2022-10-30T17:19:56.603Z,99097.31
2022-10-30T17:22:25.455Z,99114.56
2022-10-30T17:24:51.881Z,99107.34
2022-10-30T17:27:47.420Z,99116.69
2022-10-30T17:30:34.982Z,99110.13
2022-10-30T17:33:04.117Z,99114.09
2022-10-30T17:35:30.615Z,99120.56
2022-10-30T17:37:59.816Z,99124.69
2022-10-30T17:40:29.459Z,99130.72
2022-10-30T17:42:55.912Z,99138.41
2022-10-30T17:45:22.400Z,99140.69
2022-10-30T17:47:49.013Z,99137.81
2022-10-30T17:50:15.482Z,99136.78
2022-10-30T17:52:41.895Z,99140.72
2022-10-30T17:55:23.101Z,99146.13
2022-10-30T17:57:49.538Z,99150.69
2022-10-30T18:00:15.981Z,99145.13
2022-10-30T18:02:42.364Z,99145.97
2022-10-30T18:05:19.053Z,99154.03
2022-10-30T18:07:45.608Z,99150.13
2022-10-30T18:10:12.744Z,99150.75
2022-10-30T18:12:39.918Z,99150.56
2022-10-30T18:15:32.889Z,99155.13
2022-10-30T18:17:59.654Z,99155.09
2022-10-30T18:20:26.886Z,99165.81
2022-10-30T18:22:53.844Z,99164.19
2022-10-30T18:25:28.263Z,99160.47
2022-10-30T18:27:54.683Z,99165.44
2022-10-30T18:30:22.133Z,99170.78
2022-10-30T18:32:48.776Z,99165.00
2022-10-30T18:35:38.138Z,99176.97
2022-10-30T18:38:06.098Z,99171.63
2022-10-30T18:40:32.874Z,99177.56
2022-10-30T18:43:00.031Z,99173.25
2022-10-30T18:45:29.622Z,99176.53
2022-10-30T18:47:57.146Z,99174.47
2022-10-30T18:50:24.295Z,99176.94
2022-10-30T18:52:50.937Z,99169.91
2022-10-30T18:55:26.292Z,99174.00
2022-10-30T18:57:52.968Z,99174.41
2022-10-30T19:00:21.363Z,99177.31
2022-10-30T19:02:48.459Z,99187.63
2022-10-30T19:05:26.947Z,99187.19
2022-10-30T19:07:53.755Z,99189.25
2022-10-30T19:10:20.321Z,99188.00
2022-10-30T19:13:11.091Z,99181.19
2022-10-30T19:15:36.511Z,99181.78
2022-10-30T19:18:04.616Z,99189.59
2022-10-30T19:20:50.620Z,99199.03
2022-10-30T19:23:20.371Z,99196.16
2022-10-30T19:25:47.785Z,99201.09
2022-10-30T19:28:16.399Z,99195.72
2022-10-30T19:30:43.949Z,99189.47
2022-10-30T19:33:10.616Z,99202.44
2022-10-30T19:35:37.072Z,99204.28
2022-10-30T19:38:03.641Z,99211.28
2022-10-30T19:40:34.613Z,99215.03
2022-10-30T19:43:01.398Z,99207.63
2022-10-30T19:45:30.327Z,99212.09
2022-10-30T19:47:59.381Z,99216.16
2022-10-30T19:50:29.878Z,99212.41
2022-10-30T19:52:58.763Z,99207.44
2022-10-30T19:55:27.828Z,99212.97
2022-10-30T19:57:58.657Z,99204.28
2022-10-30T20:00:28.792Z,99208.34
2022-10-30T20:02:57.149Z,99207.09
2022-10-30T20:05:26.135Z,99206.66
2022-10-30T20:07:59.145Z,99210.34
2022-10-30T20:10:26.039Z,99216.16
2022-10-30T20:12:52.408Z,99219.44
2022-10-30T20:15:21.773Z,99227.84
2022-10-30T20:17:48.564Z,99225.19
2022-10-30T20:20:38.604Z,99230.31
2022-10-30T20:23:04.931Z,99233.53
2022-10-30T20:25:31.393Z,99233.50
2022-10-30T20:28:04.076Z,99227.06
2022-10-30T20:30:33.656Z,99235.47
2022-10-30T20:33:00.705Z,99234.44
2022-10-30T20:35:27.310Z,99240.16
2022-10-30T20:38:00.121Z,99237.44
2022-10-30T20:40:27.313Z,99240.22
2022-10-30T20:42:57.084Z,99234.81
2022-10-30T20:45:28.034Z,99244.69
2022-10-30T20:47:55.182Z,99246.50
2022-10-30T20:50:22.005Z,99240.09
2022-10-30T20:52:48.629Z,99247.25
2022-10-30T20:55:15.651Z,99250.59
2022-10-30T20:57:42.187Z,99252.53
2022-10-30T21:00:11.747Z,99248.66
2022-10-30T21:02:38.490Z,99246.75
2022-10-30T21:05:11.980Z,99247.56
2022-10-30T21:07:50.067Z,99253.19
2022-10-30T21:10:16.579Z,99254.22
2022-10-30T21:12:43.186Z,99257.66
2022-10-30T21:15:09.886Z,99263.16
2022-10-30T21:17:36.571Z,99270.09
2022-10-30T21:20:03.326Z,99267.19
2022-10-30T21:22:29.822Z,99263.41
2022-10-30T21:24:56.516Z,99264.34
2022-10-30T21:27:23.086Z,99263.88
2022-10-30T21:29:49.711Z,99265.47
2022-10-30T21:32:16.306Z,99260.88
2022-10-30T21:34:42.700Z,99251.56
2022-10-30T21:37:09.131Z,99256.06
2022-10-30T21:39:35.547Z,99262.53
2022-10-30T21:42:01.996Z,99257.47
2022-10-30T21:44:28.354Z,99260.97
2022-10-30T21:46:54.773Z,99255.53
2022-10-30T21:49:21.299Z,99251.19
2022-10-30T21:51:47.938Z,99246.03
2022-10-30T21:54:15.669Z,99244.56
2022-10-30T21:56:41.985Z,99245.22
2022-10-30T21:59:10.528Z,99247.59
2022-10-30T22:01:38.660Z,99249.16
2022-10-30T22:04:07.627Z,99255.06
2022-10-30T22:06:37.160Z,99257.91
2022-10-30T22:09:04.523Z,99252.31
2022-10-30T22:11:31.077Z,99246.31
2022-10-30T22:13:59.290Z,99250.38
2022-10-30T22:16:29.108Z,99249.88
2022-10-30T22:18:56.542Z,99249.44
2022-10-30T22:21:23.727Z,99259.66
2022-10-30T22:23:50.157Z,99257.72
2022-10-30T22:26:19.880Z,99260.28
2022-10-30T22:28:46.996Z,99262.75
2022-10-30T22:31:18.506Z,99275.56
2022-10-30T22:33:45.366Z,99269.28
2022-10-30T22:36:31.955Z,99270.47
2022-10-30T22:39:00.639Z,99265.97
2022-10-30T22:41:31.353Z,99279.97
2022-10-30T22:44:02.824Z,99280.78
2022-10-30T22:46:31.172Z,99274.25
2022-10-30T22:48:57.858Z,99272.13
2022-10-30T22:51:24.717Z,99271.91
2022-10-30T22:54:00.012Z,99278.81
2022-10-30T22:56:29.322Z,99275.97
2022-10-30T22:58:56.282Z,99278.09
2022-10-30T23:01:28.736Z,99279.75
2022-10-30T23:03:57.001Z,99288.28
2022-10-30T23:06:23.841Z,99277.00
2022-10-30T23:08:52.525Z,99284.34
2022-10-30T23:11:19.472Z,99276.50
2022-10-30T23:13:46.397Z,99274.19
2022-10-30T23:16:15.696Z,99275.75
2022-10-30T23:18:42.756Z,99275.44
2022-10-30T23:21:18.280Z,99281.81
2022-10-30T23:23:45.692Z,99280.13
2022-10-30T23:26:21.503Z,99281.97
2022-10-30T23:28:49.291Z,99274.31
2022-10-30T23:31:23.490Z,99275.50
2022-10-30T23:33:51.575Z,99271.19
2022-10-30T23:36:18.986Z,99279.66
2022-10-30T23:38:50.240Z,99274.69
2022-10-30T23:41:16.689Z,99283.50
2022-10-30T23:43:43.331Z,99281.19
2022-10-30T23:46:09.787Z,99283.59
2022-10-30T23:48:36.160Z,99280.72
2022-10-30T23:51:07.136Z,99281.44
2022-10-30T23:53:33.735Z,99277.63
2022-10-30T23:56:00.326Z,99282.50
2022-10-30T23:58:26.769Z,99280.66
